Time;durP1;ratioP1;P1;durP2;ratioP2;P2;SDS_P1;SDS_P2;PMS_P1;PMS_P2;Temp;Humidity;BMP_temperature;BMP_pressure;BME280_temperature;BME280_humidity;BME280_pressure;Samples;Min_cycle;Max_cycle;Signal;HPM_P1;HPM_P2
2021/04/07 00:00:37;;;;;;;39.13;27.85;;;;;;;6.79;100.00;98938.53;5052898;28;20033;-70
2021/04/07 00:03:04;;;;;;;30.83;23.63;;;;;;;6.61;100.00;98925.31;5052676;28;20049;-70
2021/04/07 00:05:36;;;;;;;33.25;24.85;;;;;;;6.64;100.00;98935.47;5052630;28;20051;-70
2021/04/07 00:08:03;;;;;;;33.20;24.35;;;;;;;6.67;100.00;98937.00;5052498;28;20033;-70
2021/04/07 00:10:37;;;;;;;38.38;27.58;;;;;;;6.45;100.00;98943.25;5052474;28;20043;-70
2021/04/07 00:13:03;;;;;;;53.53;36.08;;;;;;;5.83;100.00;98836.56;5052717;28;20021;-70
2021/04/07 00:15:29;;;;;;;50.08;32.70;;;;;;;6.42;100.00;98946.09;5052774;28;20035;-70
2021/04/07 00:17:55;;;;;;;46.03;31.13;;;;;;;6.12;100.00;98909.56;5052608;28;20033;-70
2021/04/07 00:20:23;;;;;;;43.03;29.05;;;;;;;6.36;100.00;98948.25;5052689;28;20040;-70
2021/04/07 00:22:49;;;;;;;44.88;29.27;;;;;;;6.19;100.00;98912.47;5052590;28;20036;-70
2021/04/07 00:25:16;;;;;;;31.92;23.05;;;;;;;6.09;100.00;98915.00;5052476;28;20028;-70
2021/04/07 00:27:43;;;;;;;58.42;36.80;;;;;;;6.31;100.00;98939.19;5052513;28;20027;-70
2021/04/07 00:30:10;;;;;;;59.97;37.42;;;;;;;6.41;100.00;98929.63;5052365;28;20048;-70
2021/04/07 00:32:36;;;;;;;41.35;30.08;;;;;;;6.37;100.00;98910.88;5052443;28;20024;-70
2021/04/07 00:35:01;;;;;;;40.58;27.52;;;;;;;6.39;100.00;98892.53;5052150;28;20484;-70
2021/04/07 00:37:27;;;;;;;38.08;27.77;;;;;;;6.55;100.00;98908.47;5052427;28;20396;-70
2021/04/07 00:39:53;;;;;;;39.53;28.67;;;;;;;6.61;100.00;98909.72;5052400;28;20033;-70
2021/04/07 00:42:19;;;;;;;42.33;30.83;;;;;;;6.86;100.00;98932.66;5052408;28;20444;-70
2021/04/07 00:44:45;;;;;;;45.10;31.88;;;;;;;7.08;100.00;98939.41;5052504;28;20033;-70
2021/04/07 00:47:17;;;;;;;48.70;34.60;;;;;;;6.97;100.00;98904.84;5052613;28;20025;-70
2021/04/07 00:49:42;;;;;;;53.67;34.80;;;;;;;6.95;100.00;98896.34;5051999;28;20025;-70
2021/04/07 00:52:08;;;;;;;54.70;35.45;;;;;;;7.05;100.00;98898.00;5052021;28;20397;-70
2021/04/07 00:54:34;;;;;;;54.75;36.13;;;;;;;7.18;100.00;98902.94;5052124;28;20033;-70
2021/04/07 00:57:00;;;;;;;67.20;42.72;;;;;;;6.99;100.00;98887.31;5051618;28;20021;-70
2021/04/07 00:59:26;;;;;;;62.58;40.75;;;;;;;7.13;100.00;98912.94;5052496;28;20115;-69
2021/04/07 01:01:52;;;;;;;70.13;43.92;;;;;;;6.95;100.00;98910.22;5051032;28;20053;-70
2021/04/07 01:04:20;;;;;;;70.85;44.47;;;;;;;6.88;100.00;98922.09;5049678;28;20539;-70
2021/04/07 01:06:46;;;;;;;62.67;41.25;;;;;;;6.57;100.00;98882.31;5049222;28;20496;-69
2021/04/07 01:09:12;;;;;;;64.07;40.70;;;;;;;6.68;100.00;98916.03;5051740;28;20036;-70
2021/04/07 01:11:37;;;;;;;59.67;38.67;;;;;;;6.84;100.00;98916.34;5051749;28;20035;-69
2021/04/07 01:14:03;;;;;;;42.88;30.10;;;;;;;6.46;100.00;98844.19;5051851;28;20494;-70
2021/04/07 01:16:30;;;;;;;57.75;38.38;;;;;;;6.75;100.00;98906.75;5051784;28;20025;-70
2021/04/07 01:18:55;;;;;;;57.72;38.97;;;;;;;6.41;100.00;98871.56;5051812;28;20389;-70
2021/04/07 01:21:21;;;;;;;67.20;42.25;;;;;;;6.36;100.00;98858.97;5051734;28;20087;-69
2021/04/07 01:23:47;;;;;;;60.92;39.95;;;;;;;6.62;100.00;98901.78;5051853;28;20025;-70
2021/04/07 01:26:14;;;;;;;60.30;38.35;;;;;;;6.77;100.00;98909.19;5051688;28;20029;-69
2021/04/07 01:28:41;;;;;;;48.95;34.47;;;;;;;6.58;100.00;98889.16;5051982;28;20451;-69
2021/04/07 01:31:07;;;;;;;47.78;33.13;;;;;;;6.68;100.00;98895.19;5051592;28;20033;-70
2021/04/07 01:33:33;;;;;;;47.47;32.33;;;;;;;6.83;100.00;98914.69;5051728;28;20060;-70
2021/04/07 01:35:59;;;;;;;56.75;38.30;;;;;;;6.40;100.00;98901.97;5052128;28;20126;-69
2021/04/07 01:38:25;;;;;;;68.18;43.33;;;;;;;6.53;100.00;98922.56;5054646;28;20558;-69
2021/04/07 01:40:51;;;;;;;67.13;43.22;;;;;;;6.52;100.00;98920.94;5055473;28;20029;-69
2021/04/07 01:43:20;;;;;;;60.22;36.67;;;;;;;6.48;100.00;98912.56;5055416;28;20064;-69
2021/04/07 01:45:47;;;;;;;52.40;35.30;;;;;;;6.26;100.00;98889.34;5055170;28;20033;-70
2021/04/07 01:48:14;;;;;;;65.53;38.33;;;;;;;6.07;100.00;98882.28;5055279;28;20028;-69
2021/04/07 01:50:44;;;;;;;59.35;38.20;;;;;;;6.39;100.00;98919.38;5055508;28;20033;-70
2021/04/07 01:53:10;;;;;;;;;;;;;;;6.54;100.00;98924.22;5054731;28;20116;-70
2021/04/07 01:55:36;;;;;;;43.08;27.85;;;;;;;6.25;100.00;98877.28;5055542;28;19909;-70
2021/04/07 01:58:02;;;;;;;43.80;29.20;;;;;;;6.60;100.00;98927.09;5055371;28;20477;-69
2021/04/07 02:00:31;;;;;;;52.42;35.55;;;;;;;6.54;100.00;98916.41;5055416;28;20035;-70
2021/04/07 02:02:56;;;;;;;61.25;38.53;;;;;;;6.49;100.00;98924.63;5055170;28;20051;-69
2021/04/07 02:05:22;;;;;;;70.05;42.72;;;;;;;6.22;100.00;98880.97;5053930;28;20025;-69
2021/04/07 02:07:47;;;;;;;66.93;41.25;;;;;;;6.25;100.00;98885.09;5055511;28;20432;-69
2021/04/07 02:10:13;;;;;;;75.40;43.28;;;;;;;6.30;100.00;98896.75;5055124;28;20048;-69
2021/04/07 02:12:39;;;;;;;45.80;30.48;;;;;;;6.42;100.00;98884.47;5054920;28;20025;-69
2021/04/07 02:15:07;;;;;;;63.40;40.00;;;;;;;6.08;100.00;98879.56;5054770;28;20021;-69
2021/04/07 02:17:33;;;;;;;73.88;44.40;;;;;;;5.70;100.00;98843.75;5054708;28;20036;-69
2021/04/07 02:19:58;;;;;;;74.53;41.97;;;;;;;5.83;100.00;98846.16;5054770;28;20025;-69
2021/04/07 02:22:23;;;;;;;69.03;41.05;;;;;;;6.02;100.00;98887.88;5054886;28;20104;-69
2021/04/07 02:24:49;;;;;;;72.70;43.53;;;;;;;6.00;100.00;98878.56;5054566;28;20404;-69
2021/04/07 02:27:16;;;;;;;66.88;42.35;;;;;;;6.20;100.00;98879.44;5054525;28;20057;-70
2021/04/07 02:29:44;;;;;;;65.75;41.05;;;;;;;5.80;100.00;98852.41;5054392;28;20110;-69
2021/04/07 02:32:09;;;;;;;72.82;42.63;;;;;;;6.12;100.00;98888.75;5067296;28;20115;-69
2021/04/07 02:34:36;;;;;;;63.92;41.40;;;;;;;6.09;100.00;98876.00;5064247;28;20445;-70
2021/04/07 02:37:01;;;;;;;61.38;39.40;;;;;;;6.11;100.00;98883.69;5054682;28;20029;-69
2021/04/07 02:39:27;;;;;;;52.63;34.63;;;;;;;6.27;100.00;98899.59;5054378;28;20163;-69
2021/04/07 02:41:53;;;;;;;62.08;38.88;;;;;;;6.08;100.00;98897.75;5054066;28;20025;-70
2021/04/07 02:44:19;;;;;;;55.55;34.65;;;;;;;6.09;100.00;98898.59;5053141;28;20029;-70
2021/04/07 02:46:45;;;;;;;50.95;32.55;;;;;;;5.94;100.00;98860.84;5053725;28;20049;-70
2021/04/07 02:49:11;;;;;;;60.65;32.13;;;;;;;5.99;100.00;98861.31;5053191;28;20048;-70
2021/04/07 02:51:36;;;;;;;50.33;33.33;;;;;;;6.27;100.00;98904.00;5055374;28;20114;-70
2021/04/07 02:54:03;;;;;;;42.75;29.13;;;;;;;6.29;100.00;98889.06;5060102;28;20033;-70
2021/04/07 02:56:30;;;;;;;47.67;33.17;;;;;;;6.33;100.00;98880.88;5052686;28;20024;-71
2021/04/07 02:58:56;;;;;;;61.70;40.58;;;;;;;5.89;100.00;98811.81;5049114;28;20386;-70
2021/04/07 03:01:21;;;;;;;52.47;34.35;;;;;;;6.42;100.00;98907.06;5052630;28;20431;-70
2021/04/07 03:03:47;;;;;;;61.08;38.38;;;;;;;6.19;100.00;98877.81;5052037;28;20041;-70
2021/04/07 03:06:12;;;;;;;49.22;33.05;;;;;;;6.22;100.00;98872.34;5052135;28;20484;-70
2021/04/07 03:08:37;;;;;;;77.55;45.85;;;;;;;6.45;100.00;98912.84;5052574;28;20036;-70
2021/04/07 03:11:03;;;;;;;56.38;38.00;;;;;;;6.34;100.00;98899.91;5050371;28;20021;-70
2021/04/07 03:13:28;;;;;;;71.78;43.83;;;;;;;6.25;100.00;98906.72;5053083;28;20100;-70
2021/04/07 03:15:54;;;;;;;61.50;38.28;;;;;;;5.50;100.00;98823.81;5053255;28;20049;-70
2021/04/07 03:18:19;;;;;;;59.58;39.67;;;;;;;6.03;100.00;98893.91;5053193;28;20013;-70
2021/04/07 03:20:45;;;;;;;60.92;38.42;;;;;;;6.06;100.00;98888.44;5053084;28;20074;-70
2021/04/07 03:23:11;;;;;;;50.67;33.22;;;;;;;5.88;100.00;98860.41;5052060;28;20025;-70
2021/04/07 03:25:36;;;;;;;49.45;32.72;;;;;;;6.19;100.00;98899.44;5051883;28;20057;-70
2021/04/07 03:28:02;;;;;;;52.72;34.10;;;;;;;5.97;100.00;98905.63;5051805;28;20029;-70
2021/04/07 03:30:27;;;;;;;50.65;34.50;;;;;;;6.01;100.00;98906.22;5050891;28;20020;-71
2021/04/07 03:32:53;;;;;;;49.53;32.58;;;;;;;5.75;100.00;98878.00;5050795;28;20017;-71
2021/04/07 03:35:18;;;;;;;57.45;35.78;;;;;;;5.81;100.00;98913.06;5050856;28;20059;-70
2021/04/07 03:37:44;;;;;;;54.45;35.90;;;;;;;5.76;100.00;98918.63;5051903;28;20498;-70
2021/04/07 03:40:10;;;;;;;54.65;35.05;;;;;;;5.63;100.00;98872.03;5051966;28;20036;-70
2021/04/07 03:42:35;;;;;;;55.47;35.67;;;;;;;5.86;100.00;98908.28;5051765;28;20081;-70
2021/04/07 03:45:01;;;;;;;52.33;33.65;;;;;;;5.64;100.00;98883.28;5052723;28;20033;-70
2021/04/07 03:47:26;;;;;;;48.63;33.47;;;;;;;5.75;100.00;98891.00;5053538;28;20025;-70
2021/04/07 03:49:52;;;;;;;46.33;31.92;;;;;;;5.85;100.00;98927.44;5053177;28;20472;-70
2021/04/07 03:52:17;;;;;;;48.38;31.80;;;;;;;5.57;100.00;98887.31;5052995;28;20021;-70
2021/04/07 03:54:44;;;;;;;50.42;33.10;;;;;;;5.19;100.00;98886.09;5052865;28;20060;-70
2021/04/07 03:57:10;;;;;;;55.88;34.65;;;;;;;5.41;100.00;98937.16;5052676;28;20059;-70
2021/04/07 03:59:35;;;;;;;52.08;35.40;;;;;;;5.14;100.00;98896.06;5052450;28;20111;-70
2021/04/07 04:02:00;;;;;;;55.00;36.03;;;;;;;5.06;100.00;98893.22;5052797;28;20036;-70
2021/04/07 04:04:26;;;;;;;60.88;38.97;;;;;;;4.96;100.00;98885.34;5052766;28;20049;-70
2021/04/07 04:06:52;;;;;;;50.88;33.92;;;;;;;5.14;100.00;98917.66;5052649;28;20032;-70
2021/04/07 04:09:18;;;;;;;49.75;33.70;;;;;;;5.19;100.00;98935.44;5052675;28;20028;-70
2021/04/07 04:11:43;;;;;;;52.38;32.50;;;;;;;5.27;100.00;98921.84;5052331;28;20048;-70
2021/04/07 04:14:09;;;;;;;49.33;32.75;;;;;;;5.09;100.00;98888.63;5052722;28;20469;-70
2021/04/07 04:16:34;;;;;;;49.03;32.85;;;;;;;5.06;100.00;98891.50;5052635;28;20017;-70
2021/04/07 04:19:00;;;;;;;58.75;37.22;;;;;;;5.04;100.00;98923.72;5052472;28;20404;-70
2021/04/07 04:21:25;;;;;;;54.50;34.53;;;;;;;5.13;100.00;98928.13;5052481;28;20107;-71
2021/04/07 04:23:51;;;;;;;54.90;35.97;;;;;;;4.74;100.00;98889.69;5052412;28;20466;-70
2021/04/07 04:26:16;;;;;;;58.47;36.40;;;;;;;4.92;100.00;98933.28;5052203;28;20025;-70
2021/04/07 04:28:42;;;;;;;63.25;39.97;;;;;;;5.00;100.00;98907.56;5052534;28;20055;-70
2021/04/07 04:31:07;;;;;;;68.72;44.55;;;;;;;4.97;100.00;98863.66;5052459;28;20056;-71
2021/04/07 04:33:33;;;;;;;69.13;45.28;;;;;;;5.54;100.00;98923.97;5052555;28;20033;-70
2021/04/07 04:35:59;;;;;;;51.20;35.35;;;;;;;5.41;100.00;98893.78;5052938;28;20033;-70
2021/04/07 04:38:25;;;;;;;58.92;39.05;;;;;;;5.51;100.00;98908.63;5052438;28;20115;-70
2021/04/07 04:40:51;;;;;;;54.53;36.97;;;;;;;5.62;100.00;98939.75;5052313;28;20043;-70
2021/04/07 04:43:17;;;;;;;68.47;38.38;;;;;;;5.69;100.00;98940.88;5052601;28;20029;-70
2021/04/07 04:45:42;;;;;;;126.22;49.20;;;;;;;5.56;100.00;98914.25;5052250;28;20028;-70
2021/04/07 04:48:08;;;;;;;210.75;58.60;;;;;;;5.91;100.00;98943.38;5052331;28;20078;-70
2021/04/07 04:50:33;;;;;;;334.27;61.97;;;;;;;5.85;100.00;98910.06;5052330;28;20025;-70
2021/04/07 04:52:59;;;;;;;160.82;55.17;;;;;;;5.88;100.00;98916.78;5052207;28;20491;-70
2021/04/07 04:55:25;;;;;;;232.27;51.20;;;;;;;6.14;100.00;98959.69;5052007;28;20025;-70
2021/04/07 04:57:50;;;;;;;387.13;57.70;;;;;;;6.18;100.00;98949.84;5052559;28;20479;-70
2021/04/07 05:00:16;;;;;;;179.73;43.88;;;;;;;6.05;100.00;98933.63;5052376;28;20107;-70
2021/04/07 05:02:42;;;;;;;213.98;43.42;;;;;;;6.31;100.00;98954.81;5051935;28;20049;-70
2021/04/07 05:05:08;;;;;;;332.52;46.20;;;;;;;6.37;100.00;98955.09;5052261;28;20083;-70
2021/04/07 05:07:33;;;;;;;392.67;49.20;;;;;;;6.13;100.00;98936.38;5052113;28;20029;-70
2021/04/07 05:09:59;;;;;;;194.70;42.45;;;;;;;6.25;100.00;98966.56;5051860;28;20029;-70
2021/04/07 05:12:24;;;;;;;388.17;54.00;;;;;;;5.91;100.00;98927.75;5053243;28;20454;-70
2021/04/07 05:14:50;;;;;;;288.42;54.83;;;;;;;6.04;100.00;98930.19;5055966;28;20028;-70
2021/04/07 05:17:17;;;;;;;211.30;55.83;;;;;;;6.29;100.00;98973.16;5056166;28;20129;-70
2021/04/07 05:19:42;;;;;;;332.80;57.83;;;;;;;6.27;100.00;98943.84;5056073;28;20495;-70
2021/04/07 05:22:08;;;;;;;280.77;53.15;;;;;;;6.50;100.00;98980.91;5056318;28;20037;-70
2021/04/07 05:24:33;;;;;;;367.40;56.53;;;;;;;6.71;100.00;98986.06;5055889;28;20079;-70
2021/04/07 05:26:59;;;;;;;205.68;50.53;;;;;;;6.68;100.00;98949.88;5055556;28;20037;-70
2021/04/07 05:29:24;;;;;;;173.98;53.05;;;;;;;6.78;100.00;98953.34;5055136;28;20018;-70
2021/04/07 05:31:50;;;;;;;138.00;46.60;;;;;;;7.17;100.00;98983.84;5054458;28;20033;-71
2021/04/07 05:34:15;;;;;;;96.32;49.10;;;;;;;7.22;100.00;98961.66;5055139;28;20149;-71
2021/04/07 05:36:41;;;;;;;99.78;46.58;;;;;;;7.45;100.00;98980.44;5055080;28;20488;-70
2021/04/07 05:39:07;;;;;;;88.15;43.80;;;;;;;7.52;100.00;98970.28;5054093;28;20531;-70
2021/04/07 05:41:33;;;;;;;73.25;40.00;;;;;;;7.51;100.00;98973.84;5055282;28;20040;-70
2021/04/07 05:43:58;;;;;;;59.78;35.55;;;;;;;7.54;100.00;98955.34;5054908;28;20400;-71
2021/04/07 05:46:24;;;;;;;47.47;33.90;;;;;;;7.74;100.00;98972.59;5055018;28;20028;-70
2021/04/07 05:48:49;;;;;;;51.10;34.35;;;;;;;7.87;100.00;98961.06;5053653;28;20025;-70
2021/04/07 05:51:15;;;;;;;53.63;34.65;;;;;;;7.95;100.00;98937.69;5054997;28;20052;-70
2021/04/07 05:53:40;;;;;;;47.55;32.22;;;;;;;8.41;100.00;98938.69;5054552;28;20017;-71
2021/04/07 05:56:06;;;;;;;42.78;30.20;;;;;;;8.83;100.00;98938.19;5054674;28;20036;-70
2021/04/07 05:58:31;;;;;;;42.67;30.52;;;;;;;9.19;100.00;98952.13;5054676;28;20036;-70
2021/04/07 06:00:57;;;;;;;40.75;30.48;;;;;;;9.48;100.00;98954.50;5054753;28;20029;-70
2021/04/07 06:03:23;;;;;;;32.08;24.35;;;;;;;9.85;100.00;98950.88;5054433;28;20095;-70
2021/04/07 06:05:50;;;;;;;40.97;32.63;;;;;;;10.16;100.00;98941.59;5054323;28;20472;-69
2021/04/07 06:08:17;;;;;;;44.72;34.65;;;;;;;10.26;100.00;98923.19;5053995;28;20381;-69
2021/04/07 06:10:45;;;;;;;32.67;24.02;;;;;;;10.76;100.00;98955.63;5055027;28;20025;-69
2021/04/07 06:13:12;;;;;;;33.85;25.95;;;;;;;11.17;100.00;98947.88;5054629;28;20452;-69
2021/04/07 06:15:38;;;;;;;30.63;22.55;;;;;;;11.54;100.00;98971.03;5055130;28;20031;-69
2021/04/07 06:18:07;;;;;;;34.72;23.52;;;;;;;11.76;100.00;98967.75;5054486;28;20086;-69
2021/04/07 06:20:38;;;;;;;32.70;23.20;;;;;;;12.15;100.00;98968.88;5053753;28;20029;-69
2021/04/07 06:23:06;;;;;;;35.67;24.95;;;;;;;12.52;100.00;98973.59;5054265;28;20036;-69
2021/04/07 06:25:33;;;;;;;32.53;22.73;;;;;;;12.38;100.00;98883.13;5069012;28;20525;-69
2021/04/07 06:28:00;;;;;;;35.85;26.30;;;;;;;13.22;100.00;98972.75;5054410;28;20037;-70
2021/04/07 06:33:14;;;;;;;26.55;19.15;;;;;;;13.86;100.00;98928.50;5054418;28;20468;-69
2021/04/07 06:35:43;;;;;;;30.40;19.42;;;;;;;14.27;100.00;98941.25;5054238;28;20029;-70
2021/04/07 06:38:08;;;;;;;24.80;18.02;;;;;;;14.55;100.00;98938.03;5054156;28;20089;-69
2021/04/07 06:40:34;;;;;;;40.30;29.77;;;;;;;14.85;100.00;98934.34;5055003;28;20021;-69
2021/04/07 06:43:01;;;;;;;28.13;20.05;;;;;;;15.33;100.00;98961.03;5054554;28;20396;-69
2021/04/07 06:45:28;;;;;;;26.63;18.60;;;;;;;15.24;100.00;98903.28;5048884;28;20059;-70
2021/04/07 06:47:54;;;;;;;27.23;18.90;;;;;;;15.73;100.00;98958.81;5047470;28;20029;-69
2021/04/07 06:50:21;;;;;;;28.63;18.45;;;;;;;15.99;100.00;98967.94;5037044;28;20534;-71
2021/04/07 06:52:48;;;;;;;38.55;23.65;;;;;;;16.20;100.00;98981.13;5049460;28;20040;-73
2021/04/07 06:55:17;;;;;;;23.67;14.55;;;;;;;16.36;100.00;98968.59;5049588;28;20086;-69
2021/04/07 06:57:44;;;;;;;23.67;14.38;;;;;;;16.28;100.00;98951.88;5049297;28;20107;-67
2021/04/07 07:00:10;;;;;;;26.08;20.65;;;;;;;16.78;100.00;98988.78;5048650;28;20033;-69
2021/04/07 07:02:36;;;;;;;23.67;15.20;;;;;;;16.91;100.00;98982.75;5048174;28;20067;-69
2021/04/07 07:05:02;;;;;;;32.90;18.92;;;;;;;16.85;100.00;98967.66;5048074;28;20037;-70
2021/04/07 07:07:29;;;;;;;37.17;19.75;;;;;;;16.88;100.00;98944.25;5048445;28;20037;-70
2021/04/07 07:09:55;;;;;;;38.15;20.90;;;;;;;17.30;100.00;99003.22;5048828;28;20029;-69
2021/04/07 07:12:22;;;;;;;36.80;20.98;;;;;;;17.31;100.00;98977.56;5047925;28;20037;-71
2021/04/07 07:14:48;;;;;;;33.88;20.98;;;;;;;17.51;100.00;98999.59;5048253;28;20553;-73
2021/04/07 07:17:24;;;;;;;31.63;17.42;;;;;;;17.52;100.00;98990.66;5048533;28;20049;-69
2021/04/07 07:19:49;;;;;;;28.52;17.73;;;;;;;17.78;100.00;98992.53;5048980;28;20099;-69
2021/04/07 07:22:30;;;;;;;34.47;22.92;;;;;;;17.81;100.00;99001.91;5048262;28;20447;-69
2021/04/07 07:24:59;;;;;;;;;;;;;;;17.75;100.00;99016.78;5048274;28;20037;-69
2021/04/07 07:27:39;;;;;;;33.00;22.57;;;;;;;17.50;100.00;99011.22;5048106;28;19916;-69
2021/04/07 07:30:12;;;;;;;27.35;20.35;;;;;;;17.41;100.00;98977.97;5046501;28;20040;-69
2021/04/07 07:32:39;;;;;;;32.65;23.50;;;;;;;17.78;100.00;99010.25;5046513;28;20033;-70
2021/04/07 07:35:14;;;;;;;27.42;20.58;;;;;;;17.96;100.00;98989.28;5047168;28;20114;-69
2021/04/07 07:37:41;;;;;;;24.48;17.10;;;;;;;18.14;100.00;98983.34;5047954;28;20104;-70
2021/04/07 07:40:21;;;;;;;23.40;18.85;;;;;;;18.08;100.00;99006.19;5048058;28;20033;-68
2021/04/07 07:42:47;;;;;;;25.02;16.75;;;;;;;18.40;100.00;99006.38;5048374;28;20021;-68
2021/04/07 07:45:14;;;;;;;26.33;18.83;;;;;;;18.73;100.00;99011.66;5048282;28;20420;-71
2021/04/07 07:47:43;;;;;;;21.10;16.48;;;;;;;18.81;100.00;99015.91;5044124;28;20377;-69
2021/04/07 07:50:09;;;;;;;23.25;15.77;;;;;;;18.94;100.00;98988.50;5048165;28;20036;-69
2021/04/07 07:52:37;;;;;;;30.65;22.38;;;;;;;18.83;100.00;98977.53;5048411;28;20048;-68
2021/04/07 07:55:17;;;;;;;31.85;20.40;;;;;;;18.92;100.00;98986.03;5047592;28;20051;-71
2021/04/07 07:57:56;;;;;;;24.90;18.15;;;;;;;19.17;100.00;98987.97;5047675;28;20021;-69
2021/04/07 08:00:25;;;;;;;24.48;17.38;;;;;;;19.19;100.00;99002.66;5047905;28;20037;-70
2021/04/07 08:02:52;;;;;;;23.33;14.90;;;;;;;19.29;100.00;98994.25;5047141;28;20053;-69
2021/04/07 08:05:19;;;;;;;17.30;11.80;;;;;;;19.47;100.00;99020.94;5048294;28;20036;-72
2021/04/07 08:07:45;;;;;;;16.88;11.82;;;;;;;19.26;100.00;99003.44;5047946;28;20120;-71
2021/04/07 08:10:12;;;;;;;14.50;10.27;;;;;;;19.09;100.00;99002.31;5047540;28;20039;-72
2021/04/07 08:12:39;;;;;;;14.43;8.27;;;;;;;18.79;100.00;99008.13;5047069;28;20468;-70
2021/04/07 08:15:06;;;;;;;11.27;6.68;;;;;;;18.01;100.00;99007.22;5047339;28;20037;-69
2021/04/07 08:17:32;;;;;;;15.57;8.20;;;;;;;18.21;100.00;99023.94;5038812;28;20519;-68
2021/04/07 08:20:00;;;;;;;17.02;9.80;;;;;;;18.72;100.00;99023.25;5047689;28;20029;-69
2021/04/07 08:22:28;;;;;;;15.52;9.70;;;;;;;19.09;100.00;99000.47;5047645;28;20040;-66
2021/04/07 08:24:55;;;;;;;13.35;8.65;;;;;;;19.37;100.00;98999.28;5047449;28;20032;-67
2021/04/07 08:27:21;;;;;;;13.95;8.20;;;;;;;19.96;100.00;99034.53;5047333;28;20032;-68
2021/04/07 08:29:48;;;;;;;12.57;5.68;;;;;;;19.83;100.00;99019.47;5047444;28;20083;-68
2021/04/07 08:32:21;;;;;;;12.63;5.03;;;;;;;19.77;90.07;99033.63;5047160;28;20043;-68
2021/04/07 08:34:47;;;;;;;12.93;6.55;;;;;;;19.64;98.41;99042.53;5047743;28;20032;-66
2021/04/07 08:37:18;;;;;;;18.90;7.40;;;;;;;19.67;95.34;99020.81;5046530;28;20120;-68
2021/04/07 08:39:44;;;;;;;15.05;6.80;;;;;;;19.71;92.76;99048.59;5047240;28;20110;-67
2021/04/07 08:42:14;;;;;;;13.57;8.30;;;;;;;19.88;96.58;99048.91;5046903;28;20084;-67
2021/04/07 08:44:47;;;;;;;14.05;8.35;;;;;;;19.96;89.31;99024.69;5047174;28;20462;-66
2021/04/07 08:47:30;;;;;;;14.05;9.20;;;;;;;20.29;96.68;99037.72;5046461;28;20115;-67
2021/04/07 08:50:07;;;;;;;10.90;7.03;;;;;;;20.89;92.21;99028.34;5078229;28;20458;-69
2021/04/07 08:52:49;;;;;;;13.02;7.00;;;;;;;21.25;88.03;99006.16;5038617;28;20017;-69
2021/04/07 08:55:27;;;;;;;18.00;8.75;;;;;;;21.76;71.38;99022.72;5046917;28;20060;-69
2021/04/07 08:58:05;;;;;;;11.48;6.45;;;;;;;21.67;71.19;99039.03;5046773;28;20025;-67
2021/04/07 09:00:37;;;;;;;19.08;7.75;;;;;;;21.15;64.12;99005.91;5047002;28;20044;-67
2021/04/07 09:03:17;;;;;;;14.85;7.38;;;;;;;21.51;62.66;99046.88;5046091;28;20496;-66
2021/04/07 09:05:47;;;;;;;19.27;8.55;;;;;;;21.49;62.79;99055.06;5047041;28;20029;-67
2021/04/07 09:08:27;;;;;;;13.25;8.05;;;;;;;21.68;61.52;99047.84;5046806;28;20041;-68
2021/04/07 09:10:59;;;;;;;18.08;9.65;;;;;;;21.84;64.33;99052.53;5061488;28;20488;-68
2021/04/07 09:13:31;;;;;;;22.85;11.60;;;;;;;21.93;63.99;99040.47;5047108;28;20028;-69
2021/04/07 09:16:03;;;;;;;16.58;10.13;;;;;;;21.94;62.52;99041.31;5045199;28;20021;-69
2021/04/07 09:18:43;;;;;;;17.10;9.07;;;;;;;21.76;58.63;99052.84;5046322;28;20655;-70
2021/04/07 09:21:21;;;;;;;22.38;17.00;;;;;;;21.64;61.81;99028.03;5046228;28;20040;-68
2021/04/07 09:23:52;;;;;;;11.00;7.75;;;;;;;21.39;52.16;99039.63;5046596;28;20037;-68
2021/04/07 09:26:19;;;;;;;23.30;12.40;;;;;;;21.22;57.54;99050.06;5046164;28;20032;-69
2021/04/07 09:28:53;;;;;;;9.57;5.18;;;;;;;21.61;53.09;99055.13;5046724;28;20385;-68
2021/04/07 09:31:39;;;;;;;13.40;6.40;;;;;;;21.79;53.95;99057.72;5046868;28;20083;-68
2021/04/07 09:34:05;;;;;;;12.48;7.05;;;;;;;21.45;55.30;99057.38;5046468;28;20098;-70
2021/04/07 09:36:33;;;;;;;11.00;8.27;;;;;;;21.01;59.02;99052.38;5046361;28;20825;-69
2021/04/07 09:39:00;;;;;;;12.48;9.50;;;;;;;20.47;58.83;99076.03;5046192;28;20032;-69
2021/04/07 09:41:29;;;;;;;13.10;8.38;;;;;;;20.04;61.60;99060.84;5046299;28;20049;-70
2021/04/07 09:43:55;;;;;;;14.65;7.70;;;;;;;20.15;61.45;99093.88;5046758;28;20035;-69
2021/04/07 09:46:21;;;;;;;13.85;8.40;;;;;;;19.85;60.67;99091.88;5046076;28;20036;-72
2021/04/07 09:49:00;;;;;;;11.05;7.82;;;;;;;19.85;62.42;99091.88;5046596;28;20538;-70
2021/04/07 09:51:26;;;;;;;13.67;11.50;;;;;;;19.73;63.43;99105.00;5046394;28;20040;-69
2021/04/07 09:53:52;;;;;;;9.75;7.55;;;;;;;19.84;64.72;99097.38;5046369;28;20037;-70
2021/04/07 09:56:18;;;;;;;13.23;10.23;;;;;;;19.51;58.68;99088.53;5046259;28;20044;-69
2021/04/07 09:58:47;;;;;;;17.67;11.40;;;;;;;19.63;62.78;99103.81;5047945;28;20021;-69
2021/04/07 10:01:15;;;;;;;16.65;13.40;;;;;;;19.79;63.24;99098.84;5049888;28;20068;-70
2021/04/07 10:03:53;;;;;;;11.60;10.02;;;;;;;19.76;64.09;99117.06;5050008;28;20572;-70
2021/04/07 10:06:25;;;;;;;15.48;8.60;;;;;;;19.56;60.73;99122.44;5050229;28;20159;-69
2021/04/07 10:09:07;;;;;;;15.85;11.30;;;;;;;19.77;59.30;99116.84;5041965;28;20044;-69
2021/04/07 10:11:42;;;;;;;10.65;7.80;;;;;;;19.79;60.62;99117.44;5047248;28;20485;-70
2021/04/07 10:14:09;;;;;;;16.45;10.52;;;;;;;19.55;59.53;99121.63;5041878;28;20060;-69
2021/04/07 10:16:38;;;;;;;15.50;9.85;;;;;;;18.93;60.61;99051.38;5049543;28;20393;-70
2021/04/07 10:19:08;;;;;;;13.55;9.90;;;;;;;19.27;57.09;99099.88;5049510;28;20503;-70
2021/04/07 10:21:34;;;;;;;;;;;;;;;19.18;57.49;99130.38;5049789;28;20033;-70
2021/04/07 10:24:01;;;;;;;14.57;8.48;;;;;;;18.83;58.36;99104.09;5050115;28;20360;-70
2021/04/07 10:26:27;;;;;;;10.30;7.90;;;;;;;18.98;59.29;99109.97;5049509;28;20033;-70
2021/04/07 10:28:55;;;;;;;9.60;6.35;;;;;;;19.02;57.63;99147.56;5047433;28;20025;-71
2021/04/07 10:31:21;;;;;;;11.70;8.20;;;;;;;18.57;58.17;99153.50;5049277;28;20492;-71
2021/04/07 10:33:47;;;;;;;11.40;7.22;;;;;;;18.31;58.60;99126.94;5048668;28;20032;-72
2021/04/07 10:36:12;;;;;;;11.32;7.95;;;;;;;18.57;58.70;99163.28;5048828;28;20033;-71
2021/04/07 10:38:38;;;;;;;10.63;6.40;;;;;;;18.56;58.53;99167.78;5049429;28;20052;-71
2021/04/07 10:41:05;;;;;;;11.57;6.88;;;;;;;18.32;59.21;99171.81;5049386;28;20120;-71
2021/04/07 10:43:39;;;;;;;10.95;6.65;;;;;;;18.48;61.08;99173.28;5049798;28;20032;-71
2021/04/07 10:46:06;;;;;;;11.40;7.82;;;;;;;18.23;61.18;99177.53;5052373;28;20039;-71
2021/04/07 10:48:32;;;;;;;11.15;7.82;;;;;;;18.08;60.41;99178.50;5053936;28;20389;-69
2021/04/07 10:50:58;;;;;;;12.20;7.53;;;;;;;17.89;59.61;99152.78;5054644;28;20029;-68
2021/04/07 10:53:31;;;;;;;10.35;7.55;;;;;;;17.88;58.11;99178.47;5054550;28;20083;-70
2021/04/07 10:55:59;;;;;;;12.88;7.55;;;;;;;17.80;60.44;99175.19;5054338;28;20033;-69
2021/04/07 10:58:26;;;;;;;8.43;5.68;;;;;;;17.93;59.91;99168.09;5054285;28;20104;-70
2021/04/07 11:00:52;;;;;;;9.43;6.80;;;;;;;18.09;62.25;99180.16;5052951;28;20438;-70
2021/04/07 11:03:29;;;;;;;11.32;6.57;;;;;;;18.25;61.05;99183.44;5053223;28;20132;-69
2021/04/07 11:05:55;;;;;;;12.32;7.53;;;;;;;18.14;62.37;99148.56;5051162;28;20506;-70
2021/04/07 11:08:20;;;;;;;11.23;6.68;;;;;;;18.25;58.52;99155.09;5052779;28;20111;-69
2021/04/07 11:10:48;;;;;;;14.75;7.68;;;;;;;18.52;62.08;99168.38;5053876;28;20499;-69
2021/04/07 11:13:16;;;;;;;12.55;7.55;;;;;;;18.74;59.35;99184.97;5054055;28;20036;-70
2021/04/07 11:15:42;;;;;;;12.32;6.68;;;;;;;18.60;58.92;99187.56;5053610;28;20060;-69
2021/04/07 11:18:08;;;;;;;11.65;7.22;;;;;;;18.28;60.35;99175.91;5053943;28;20075;-69
2021/04/07 11:20:37;;;;;;;13.10;7.55;;;;;;;18.33;60.04;99176.13;5053693;28;20055;-70